sensor_id;sensor_type;location;lat;lon;timestamp;temperature;humidity
12408;DHT22;6268;48.188;17.134;2022-07-24T00:01:43;28.20;61.40
12408;DHT22;6268;48.188;17.134;2022-07-24T00:04:12;28.20;61.90
12408;DHT22;6268;48.188;17.134;2022-07-24T00:06:42;28.00;62.20
12408;DHT22;6268;48.188;17.134;2022-07-24T00:09:10;28.00;62.80
12408;DHT22;6268;48.188;17.134;2022-07-24T00:11:39;27.90;62.80
12408;DHT22;6268;48.188;17.134;2022-07-24T00:14:10;27.90;63.20
12408;DHT22;6268;48.188;17.134;2022-07-24T00:16:39;27.90;63.30
12408;DHT22;6268;48.188;17.134;2022-07-24T00:19:08;27.90;63.40
12408;DHT22;6268;48.188;17.134;2022-07-24T00:21:36;27.80;64.50
12408;DHT22;6268;48.188;17.134;2022-07-24T00:24:06;27.80;64.00
12408;DHT22;6268;48.188;17.134;2022-07-24T00:26:35;27.70;64.20
12408;DHT22;6268;48.188;17.134;2022-07-24T00:29:04;27.70;64.80
12408;DHT22;6268;48.188;17.134;2022-07-24T00:31:35;27.60;65.00
12408;DHT22;6268;48.188;17.134;2022-07-24T00:34:04;27.60;65.60
12408;DHT22;6268;48.188;17.134;2022-07-24T00:36:33;27.60;65.90
12408;DHT22;6268;48.188;17.134;2022-07-24T00:39:02;27.50;66.30
12408;DHT22;6268;48.188;17.134;2022-07-24T00:41:32;27.40;66.60
12408;DHT22;6268;48.188;17.134;2022-07-24T00:44:02;27.40;67.10
12408;DHT22;6268;48.188;17.134;2022-07-24T00:46:35;27.40;67.40
12408;DHT22;6268;48.188;17.134;2022-07-24T00:49:08;27.40;67.50
12408;DHT22;6268;48.188;17.134;2022-07-24T00:51:49;27.40;67.60
12408;DHT22;6268;48.188;17.134;2022-07-24T00:54:22;27.40;67.80
12408;DHT22;6268;48.188;17.134;2022-07-24T00:56:52;27.30;68.30
12408;DHT22;6268;48.188;17.134;2022-07-24T00:59:22;27.40;68.40
12408;DHT22;6268;48.188;17.134;2022-07-24T01:01:52;27.30;68.50
12408;DHT22;6268;48.188;17.134;2022-07-24T01:04:21;27.30;68.70
12408;DHT22;6268;48.188;17.134;2022-07-24T01:06:50;27.30;69.20
12408;DHT22;6268;48.188;17.134;2022-07-24T01:09:19;27.20;69.30
12408;DHT22;6268;48.188;17.134;2022-07-24T01:11:48;27.30;69.70
12408;DHT22;6268;48.188;17.134;2022-07-24T01:14:19;27.10;71.00
12408;DHT22;6268;48.188;17.134;2022-07-24T01:16:48;27.10;70.10
12408;DHT22;6268;48.188;17.134;2022-07-24T01:19:18;27.10;70.70
12408;DHT22;6268;48.188;17.134;2022-07-24T01:21:49;27.10;71.10
12408;DHT22;6268;48.188;17.134;2022-07-24T01:24:20;27.00;71.50
12408;DHT22;6268;48.188;17.134;2022-07-24T01:26:49;27.00;72.50
12408;DHT22;6268;48.188;17.134;2022-07-24T01:29:18;26.90;73.60
12408;DHT22;6268;48.188;17.134;2022-07-24T01:31:47;26.80;74.80
12408;DHT22;6268;48.188;17.134;2022-07-24T01:34:16;26.80;75.40
12408;DHT22;6268;48.188;17.134;2022-07-24T01:36:45;26.70;75.80
12408;DHT22;6268;48.188;17.134;2022-07-24T01:39:15;26.60;76.30
12408;DHT22;6268;48.188;17.134;2022-07-24T01:41:44;26.60;76.80
12408;DHT22;6268;48.188;17.134;2022-07-24T01:44:13;26.50;77.40
12408;DHT22;6268;48.188;17.134;2022-07-24T01:46:43;26.50;77.80
12408;DHT22;6268;48.188;17.134;2022-07-24T01:49:12;26.50;78.30
12408;DHT22;6268;48.188;17.134;2022-07-24T01:51:41;26.50;78.60
12408;DHT22;6268;48.188;17.134;2022-07-24T01:54:10;26.50;78.70
12408;DHT22;6268;48.188;17.134;2022-07-24T01:56:40;26.40;79.10
12408;DHT22;6268;48.188;17.134;2022-07-24T01:59:09;26.40;79.50
12408;DHT22;6268;48.188;17.134;2022-07-24T02:01:39;26.40;79.80
12408;DHT22;6268;48.188;17.134;2022-07-24T02:04:08;26.30;80.30
12408;DHT22;6268;48.188;17.134;2022-07-24T02:06:37;26.30;81.00
12408;DHT22;6268;48.188;17.134;2022-07-24T02:09:06;26.30;81.30
12408;DHT22;6268;48.188;17.134;2022-07-24T02:11:35;26.30;81.60
12408;DHT22;6268;48.188;17.134;2022-07-24T02:14:05;26.20;82.20
12408;DHT22;6268;48.188;17.134;2022-07-24T02:16:34;26.20;82.80
12408;DHT22;6268;48.188;17.134;2022-07-24T02:19:03;26.20;83.60
12408;DHT22;6268;48.188;17.134;2022-07-24T02:21:32;26.10;84.60
12408;DHT22;6268;48.188;17.134;2022-07-24T02:24:01;26.00;84.70
12408;DHT22;6268;48.188;17.134;2022-07-24T02:26:30;26.00;84.90
12408;DHT22;6268;48.188;17.134;2022-07-24T02:29:00;26.00;84.70
12408;DHT22;6268;48.188;17.134;2022-07-24T02:31:30;26.00;85.10
12408;DHT22;6268;48.188;17.134;2022-07-24T02:33:59;25.90;85.20
12408;DHT22;6268;48.188;17.134;2022-07-24T02:36:29;26.00;86.60
12408;DHT22;6268;48.188;17.134;2022-07-24T02:38:57;25.90;86.10
12408;DHT22;6268;48.188;17.134;2022-07-24T02:41:26;25.80;86.80
12408;DHT22;6268;48.188;17.134;2022-07-24T02:43:55;25.80;87.50
12408;DHT22;6268;48.188;17.134;2022-07-24T02:46:24;25.90;88.10
12408;DHT22;6268;48.188;17.134;2022-07-24T02:48:54;25.90;88.50
12408;DHT22;6268;48.188;17.134;2022-07-24T02:51:23;25.80;89.10
12408;DHT22;6268;48.188;17.134;2022-07-24T02:53:51;25.90;89.70
12408;DHT22;6268;48.188;17.134;2022-07-24T02:56:20;25.90;90.00
12408;DHT22;6268;48.188;17.134;2022-07-24T02:58:49;25.90;90.10
12408;DHT22;6268;48.188;17.134;2022-07-24T03:01:18;25.80;90.30
12408;DHT22;6268;48.188;17.134;2022-07-24T03:03:47;25.80;90.80
12408;DHT22;6268;48.188;17.134;2022-07-24T03:06:17;25.80;91.20
12408;DHT22;6268;48.188;17.134;2022-07-24T03:08:45;25.70;91.80
12408;DHT22;6268;48.188;17.134;2022-07-24T03:11:14;25.70;92.40
12408;DHT22;6268;48.188;17.134;2022-07-24T03:13:43;25.60;93.10
12408;DHT22;6268;48.188;17.134;2022-07-24T03:16:12;25.60;94.00
12408;DHT22;6268;48.188;17.134;2022-07-24T03:18:42;25.50;94.60
12408;DHT22;6268;48.188;17.134;2022-07-24T03:21:17;25.50;95.30
12408;DHT22;6268;48.188;17.134;2022-07-24T03:24:06;25.40;95.90
12408;DHT22;6268;48.188;17.134;2022-07-24T03:26:35;25.30;96.80
12408;DHT22;6268;48.188;17.134;2022-07-24T03:29:04;25.30;97.70
12408;DHT22;6268;48.188;17.134;2022-07-24T03:31:34;25.20;98.50
12408;DHT22;6268;48.188;17.134;2022-07-24T03:34:03;25.10;99.30
12408;DHT22;6268;48.188;17.134;2022-07-24T03:36:34;25.10;99.90
12408;DHT22;6268;48.188;17.134;2022-07-24T03:39:04;25.10;99.90
12408;DHT22;6268;48.188;17.134;2022-07-24T03:41:34;25.10;99.90
12408;DHT22;6268;48.188;17.134;2022-07-24T03:44:03;25.20;99.90
12408;DHT22;6268;48.188;17.134;2022-07-24T03:46:33;25.10;99.90
12408;DHT22;6268;48.188;17.134;2022-07-24T03:49:02;25.10;99.90
12408;DHT22;6268;48.188;17.134;2022-07-24T03:51:33;25.00;99.90
12408;DHT22;6268;48.188;17.134;2022-07-24T03:54:04;25.00;99.90
12408;DHT22;6268;48.188;17.134;2022-07-24T03:56:33;24.90;99.90
12408;DHT22;6268;48.188;17.134;2022-07-24T03:59:01;24.90;99.90
12408;DHT22;6268;48.188;17.134;2022-07-24T04:01:31;24.90;99.90
12408;DHT22;6268;48.188;17.134;2022-07-24T04:04:00;24.80;99.90
12408;DHT22;6268;48.188;17.134;2022-07-24T04:06:34;24.90;99.90
12408;DHT22;6268;48.188;17.134;2022-07-24T04:09:04;24.90;99.90
12408;DHT22;6268;48.188;17.134;2022-07-24T04:11:34;25.00;99.90
12408;DHT22;6268;48.188;17.134;2022-07-24T04:14:03;25.10;99.90
12408;DHT22;6268;48.188;17.134;2022-07-24T04:16:32;25.00;99.90
12408;DHT22;6268;48.188;17.134;2022-07-24T04:19:01;25.10;99.90
12408;DHT22;6268;48.188;17.134;2022-07-24T04:21:34;25.20;99.90
12408;DHT22;6268;48.188;17.134;2022-07-24T04:24:03;25.20;99.90
12408;DHT22;6268;48.188;17.134;2022-07-24T04:26:32;25.20;99.90
12408;DHT22;6268;48.188;17.134;2022-07-24T04:29:01;25.20;99.90
12408;DHT22;6268;48.188;17.134;2022-07-24T04:31:31;25.10;99.90
12408;DHT22;6268;48.188;17.134;2022-07-24T04:34:00;25.10;99.90
12408;DHT22;6268;48.188;17.134;2022-07-24T04:36:29;25.20;99.90
12408;DHT22;6268;48.188;17.134;2022-07-24T04:38:59;25.10;99.90
12408;DHT22;6268;48.188;17.134;2022-07-24T04:41:34;25.10;99.90
12408;DHT22;6268;48.188;17.134;2022-07-24T04:44:03;25.10;99.90
12408;DHT22;6268;48.188;17.134;2022-07-24T04:46:32;25.10;99.90
12408;DHT22;6268;48.188;17.134;2022-07-24T04:49:01;25.20;99.90
12408;DHT22;6268;48.188;17.134;2022-07-24T04:51:30;25.30;99.90
12408;DHT22;6268;48.188;17.134;2022-07-24T04:54:00;25.30;99.90
12408;DHT22;6268;48.188;17.134;2022-07-24T04:56:29;25.40;99.90
12408;DHT22;6268;48.188;17.134;2022-07-24T04:59:00;25.40;99.90
12408;DHT22;6268;48.188;17.134;2022-07-24T05:01:30;25.40;99.90
12408;DHT22;6268;48.188;17.134;2022-07-24T05:03:58;25.50;99.90
12408;DHT22;6268;48.188;17.134;2022-07-24T05:06:27;25.70;99.90
12408;DHT22;6268;48.188;17.134;2022-07-24T05:08:56;25.90;99.90
12408;DHT22;6268;48.188;17.134;2022-07-24T05:11:26;26.30;99.90
12408;DHT22;6268;48.188;17.134;2022-07-24T05:13:55;26.30;99.90
12408;DHT22;6268;48.188;17.134;2022-07-24T05:16:23;26.50;99.90
12408;DHT22;6268;48.188;17.134;2022-07-24T05:18:53;26.60;99.90
12408;DHT22;6268;48.188;17.134;2022-07-24T05:21:22;26.70;99.90
12408;DHT22;6268;48.188;17.134;2022-07-24T05:23:51;26.80;99.90
12408;DHT22;6268;48.188;17.134;2022-07-24T05:26:20;26.90;99.90
12408;DHT22;6268;48.188;17.134;2022-07-24T05:28:51;27.10;99.90
12408;DHT22;6268;48.188;17.134;2022-07-24T05:31:19;27.20;99.90
12408;DHT22;6268;48.188;17.134;2022-07-24T05:33:48;27.40;99.90
12408;DHT22;6268;48.188;17.134;2022-07-24T05:36:17;27.30;99.90
12408;DHT22;6268;48.188;17.134;2022-07-24T05:38:46;27.10;99.90
12408;DHT22;6268;48.188;17.134;2022-07-24T05:41:14;27.10;99.90
12408;DHT22;6268;48.188;17.134;2022-07-24T05:43:43;27.20;99.90
12408;DHT22;6268;48.188;17.134;2022-07-24T05:46:13;27.30;99.90
12408;DHT22;6268;48.188;17.134;2022-07-24T05:48:44;27.60;99.90
12408;DHT22;6268;48.188;17.134;2022-07-24T05:51:13;28.00;99.90
12408;DHT22;6268;48.188;17.134;2022-07-24T05:53:42;28.10;99.90
12408;DHT22;6268;48.188;17.134;2022-07-24T05:56:11;28.40;99.90
12408;DHT22;6268;48.188;17.134;2022-07-24T05:58:40;28.60;99.40
12408;DHT22;6268;48.188;17.134;2022-07-24T06:01:08;28.50;99.00
12408;DHT22;6268;48.188;17.134;2022-07-24T06:03:43;28.30;99.40
12408;DHT22;6268;48.188;17.134;2022-07-24T06:06:12;28.10;99.90
12408;DHT22;6268;48.188;17.134;2022-07-24T06:08:40;28.00;99.90
12408;DHT22;6268;48.188;17.134;2022-07-24T06:11:09;28.00;99.90
12408;DHT22;6268;48.188;17.134;2022-07-24T06:13:38;28.00;99.90
12408;DHT22;6268;48.188;17.134;2022-07-24T06:16:07;28.20;99.90
12408;DHT22;6268;48.188;17.134;2022-07-24T06:18:36;28.20;99.90
12408;DHT22;6268;48.188;17.134;2022-07-24T06:21:06;28.60;99.40
12408;DHT22;6268;48.188;17.134;2022-07-24T06:23:35;29.00;98.50
12408;DHT22;6268;48.188;17.134;2022-07-24T06:26:04;29.50;97.30
12408;DHT22;6268;48.188;17.134;2022-07-24T06:28:33;30.00;95.60
12408;DHT22;6268;48.188;17.134;2022-07-24T06:31:01;30.40;94.30
12408;DHT22;6268;48.188;17.134;2022-07-24T06:33:31;30.60;93.10
12408;DHT22;6268;48.188;17.134;2022-07-24T06:36:00;30.70;92.50
12408;DHT22;6268;48.188;17.134;2022-07-24T06:38:30;31.10;91.80
12408;DHT22;6268;48.188;17.134;2022-07-24T06:40:58;31.40;90.60
12408;DHT22;6268;48.188;17.134;2022-07-24T06:43:27;31.40;89.60
12408;DHT22;6268;48.188;17.134;2022-07-24T06:45:56;31.40;89.40
12408;DHT22;6268;48.188;17.134;2022-07-24T06:48:25;31.20;88.90
12408;DHT22;6268;48.188;17.134;2022-07-24T06:50:53;31.00;89.30
12408;DHT22;6268;48.188;17.134;2022-07-24T06:53:22;31.00;88.90
12408;DHT22;6268;48.188;17.134;2022-07-24T06:55:53;31.10;88.60
12408;DHT22;6268;48.188;17.134;2022-07-24T06:58:22;31.20;88.00
12408;DHT22;6268;48.188;17.134;2022-07-24T07:00:51;31.40;87.10
12408;DHT22;6268;48.188;17.134;2022-07-24T07:03:20;31.60;86.00
12408;DHT22;6268;48.188;17.134;2022-07-24T07:05:49;31.90;84.50
12408;DHT22;6268;48.188;17.134;2022-07-24T07:08:18;32.30;83.10
12408;DHT22;6268;48.188;17.134;2022-07-24T07:10:46;32.40;81.40
12408;DHT22;6268;48.188;17.134;2022-07-24T07:13:17;32.40;80.80
12408;DHT22;6268;48.188;17.134;2022-07-24T07:15:45;32.50;79.80
12408;DHT22;6268;48.188;17.134;2022-07-24T07:18:14;32.50;79.70
12408;DHT22;6268;48.188;17.134;2022-07-24T07:20:43;32.60;79.30
12408;DHT22;6268;48.188;17.134;2022-07-24T07:23:11;32.60;78.90
12408;DHT22;6268;48.188;17.134;2022-07-24T07:25:40;32.60;78.30
12408;DHT22;6268;48.188;17.134;2022-07-24T07:28:09;32.60;78.20
12408;DHT22;6268;48.188;17.134;2022-07-24T07:30:41;33.00;77.10
12408;DHT22;6268;48.188;17.134;2022-07-24T07:33:10;33.60;74.80
12408;DHT22;6268;48.188;17.134;2022-07-24T07:35:39;34.20;72.00
12408;DHT22;6268;48.188;17.134;2022-07-24T07:38:08;35.00;69.40
12408;DHT22;6268;48.188;17.134;2022-07-24T07:40:37;35.70;66.60
12408;DHT22;6268;48.188;17.134;2022-07-24T07:43:05;36.20;64.10
12408;DHT22;6268;48.188;17.134;2022-07-24T07:45:34;36.60;61.90
12408;DHT22;6268;48.188;17.134;2022-07-24T07:48:05;37.00;60.20
12408;DHT22;6268;48.188;17.134;2022-07-24T07:50:34;37.20;59.00
12408;DHT22;6268;48.188;17.134;2022-07-24T07:53:02;37.40;58.20
12408;DHT22;6268;48.188;17.134;2022-07-24T07:55:31;37.70;57.60
12408;DHT22;6268;48.188;17.134;2022-07-24T07:58:00;37.90;56.80
12408;DHT22;6268;48.188;17.134;2022-07-24T08:00:32;37.90;56.10
12408;DHT22;6268;48.188;17.134;2022-07-24T08:03:01;38.00;55.80
12408;DHT22;6268;48.188;17.134;2022-07-24T08:05:32;38.10;55.70
12408;DHT22;6268;48.188;17.134;2022-07-24T08:08:01;38.40;55.10
12408;DHT22;6268;48.188;17.134;2022-07-24T08:10:30;38.40;54.50
12408;DHT22;6268;48.188;17.134;2022-07-24T08:12:59;38.00;54.30
12408;DHT22;6268;48.188;17.134;2022-07-24T08:15:27;37.60;54.90
12408;DHT22;6268;48.188;17.134;2022-07-24T08:17:57;37.30;55.20
12408;DHT22;6268;48.188;17.134;2022-07-24T08:20:27;37.50;54.80
12408;DHT22;6268;48.188;17.134;2022-07-24T08:22:57;37.90;53.70
12408;DHT22;6268;48.188;17.134;2022-07-24T08:25:26;38.20;53.20
12408;DHT22;6268;48.188;17.134;2022-07-24T08:27:56;38.50;52.40
12408;DHT22;6268;48.188;17.134;2022-07-24T08:30:24;38.70;51.60
12408;DHT22;6268;48.188;17.134;2022-07-24T08:32:54;38.60;51.30
12408;DHT22;6268;48.188;17.134;2022-07-24T08:35:22;38.70;51.10
12408;DHT22;6268;48.188;17.134;2022-07-24T08:38:00;38.80;51.20
12408;DHT22;6268;48.188;17.134;2022-07-24T08:40:33;38.50;51.00
12408;DHT22;6268;48.188;17.134;2022-07-24T08:43:04;38.50;50.90
12408;DHT22;6268;48.188;17.134;2022-07-24T08:45:36;38.60;50.20
12408;DHT22;6268;48.188;17.134;2022-07-24T08:48:08;38.70;49.70
12408;DHT22;6268;48.188;17.134;2022-07-24T08:50:39;38.90;49.10
12408;DHT22;6268;48.188;17.134;2022-07-24T08:53:11;38.80;48.20
12408;DHT22;6268;48.188;17.134;2022-07-24T08:55:39;38.80;47.60
12408;DHT22;6268;48.188;17.134;2022-07-24T08:58:08;39.00;47.20
12408;DHT22;6268;48.188;17.134;2022-07-24T09:00:37;39.30;45.60
12408;DHT22;6268;48.188;17.134;2022-07-24T09:03:06;39.20;44.20
12408;DHT22;6268;48.188;17.134;2022-07-24T09:05:52;39.30;44.70
12408;DHT22;6268;48.188;17.134;2022-07-24T09:08:23;39.40;43.50
12408;DHT22;6268;48.188;17.134;2022-07-24T09:11:00;39.40;44.70
12408;DHT22;6268;48.188;17.134;2022-07-24T09:13:32;39.40;44.00
12408;DHT22;6268;48.188;17.134;2022-07-24T09:16:24;39.50;42.60
12408;DHT22;6268;48.188;17.134;2022-07-24T09:19:04;39.20;42.90
12408;DHT22;6268;48.188;17.134;2022-07-24T09:21:40;39.20;39.30
12408;DHT22;6268;48.188;17.134;2022-07-24T09:24:15;39.10;38.70
12408;DHT22;6268;48.188;17.134;2022-07-24T09:26:49;39.10;36.30
12408;DHT22;6268;48.188;17.134;2022-07-24T09:29:20;39.10;37.50
12408;DHT22;6268;48.188;17.134;2022-07-24T09:31:55;38.80;39.30
12408;DHT22;6268;48.188;17.134;2022-07-24T09:34:28;38.60;39.00
12408;DHT22;6268;48.188;17.134;2022-07-24T09:37:02;38.60;38.70
12408;DHT22;6268;48.188;17.134;2022-07-24T09:39:37;38.60;39.10
12408;DHT22;6268;48.188;17.134;2022-07-24T09:42:07;38.70;39.00
12408;DHT22;6268;48.188;17.134;2022-07-24T09:44:37;38.60;39.00
12408;DHT22;6268;48.188;17.134;2022-07-24T09:47:09;38.50;39.10
12408;DHT22;6268;48.188;17.134;2022-07-24T09:49:41;38.40;39.70
12408;DHT22;6268;48.188;17.134;2022-07-24T09:52:15;38.40;39.90
12408;DHT22;6268;48.188;17.134;2022-07-24T09:54:51;38.40;39.80
12408;DHT22;6268;48.188;17.134;2022-07-24T09:57:22;38.30;40.30
12408;DHT22;6268;48.188;17.134;2022-07-24T09:59:56;38.30;40.70
12408;DHT22;6268;48.188;17.134;2022-07-24T10:02:30;38.20;40.90
12408;DHT22;6268;48.188;17.134;2022-07-24T10:05:02;38.30;40.90
12408;DHT22;6268;48.188;17.134;2022-07-24T10:07:32;38.50;40.90
12408;DHT22;6268;48.188;17.134;2022-07-24T10:10:03;38.60;41.00
12408;DHT22;6268;48.188;17.134;2022-07-24T10:12:38;38.60;41.20
12408;DHT22;6268;48.188;17.134;2022-07-24T10:15:08;38.70;40.60
12408;DHT22;6268;48.188;17.134;2022-07-24T10:18:00;38.70;40.20
12408;DHT22;6268;48.188;17.134;2022-07-24T10:20:44;38.70;39.80
12408;DHT22;6268;48.188;17.134;2022-07-24T10:23:22;38.50;39.60
12408;DHT22;6268;48.188;17.134;2022-07-24T10:26:03;38.70;39.80
12408;DHT22;6268;48.188;17.134;2022-07-24T10:28:40;38.50;40.30
12408;DHT22;6268;48.188;17.134;2022-07-24T10:31:12;38.20;41.30
12408;DHT22;6268;48.188;17.134;2022-07-24T10:33:42;38.00;40.80
12408;DHT22;6268;48.188;17.134;2022-07-24T10:36:25;37.80;40.40
12408;DHT22;6268;48.188;17.134;2022-07-24T10:39:00;37.60;40.60
12408;DHT22;6268;48.188;17.134;2022-07-24T10:41:40;37.50;40.80
12408;DHT22;6268;48.188;17.134;2022-07-24T10:44:16;37.20;40.80
12408;DHT22;6268;48.188;17.134;2022-07-24T10:47:07;37.10;41.10
12408;DHT22;6268;48.188;17.134;2022-07-24T10:49:44;37.20;41.30
12408;DHT22;6268;48.188;17.134;2022-07-24T10:52:25;37.40;41.30
12408;DHT22;6268;48.188;17.134;2022-07-24T10:55:29;37.70;41.00
12408;DHT22;6268;48.188;17.134;2022-07-24T10:58:12;37.70;40.60
12408;DHT22;6268;48.188;17.134;2022-07-24T11:00:45;37.60;39.60
12408;DHT22;6268;48.188;17.134;2022-07-24T11:03:19;37.40;39.30
12408;DHT22;6268;48.188;17.134;2022-07-24T11:06:05;37.30;39.30
12408;DHT22;6268;48.188;17.134;2022-07-24T11:08:39;37.30;39.70
12408;DHT22;6268;48.188;17.134;2022-07-24T11:11:16;37.20;39.20
12408;DHT22;6268;48.188;17.134;2022-07-24T11:13:49;37.30;39.30
12408;DHT22;6268;48.188;17.134;2022-07-24T11:16:22;37.30;38.90
12408;DHT22;6268;48.188;17.134;2022-07-24T11:19:28;37.20;38.90
12408;DHT22;6268;48.188;17.134;2022-07-24T11:22:06;37.10;38.90
12408;DHT22;6268;48.188;17.134;2022-07-24T11:25:09;37.10;39.00
12408;DHT22;6268;48.188;17.134;2022-07-24T11:27:52;37.00;38.60
12408;DHT22;6268;48.188;17.134;2022-07-24T11:30:28;36.90;39.10
12408;DHT22;6268;48.188;17.134;2022-07-24T11:32:58;36.90;38.80
12408;DHT22;6268;48.188;17.134;2022-07-24T11:35:33;36.80;38.90
12408;DHT22;6268;48.188;17.134;2022-07-24T11:38:05;36.60;39.10
12408;DHT22;6268;48.188;17.134;2022-07-24T11:40:36;36.20;38.70
12408;DHT22;6268;48.188;17.134;2022-07-24T11:43:07;36.00;39.00
12408;DHT22;6268;48.188;17.134;2022-07-24T11:45:39;36.00;39.60
12408;DHT22;6268;48.188;17.134;2022-07-24T11:48:19;35.90;39.80
12408;DHT22;6268;48.188;17.134;2022-07-24T11:51:04;35.90;39.70
12408;DHT22;6268;48.188;17.134;2022-07-24T11:53:53;35.90;40.00
12408;DHT22;6268;48.188;17.134;2022-07-24T11:56:22;35.80;37.60
12408;DHT22;6268;48.188;17.134;2022-07-24T11:58:51;35.70;37.00
12408;DHT22;6268;48.188;17.134;2022-07-24T12:01:22;35.70;36.70
12408;DHT22;6268;48.188;17.134;2022-07-24T12:03:52;35.60;37.20
12408;DHT22;6268;48.188;17.134;2022-07-24T12:06:22;35.60;37.10
12408;DHT22;6268;48.188;17.134;2022-07-24T12:08:59;35.20;37.70
12408;DHT22;6268;48.188;17.134;2022-07-24T12:11:34;34.80;38.60
12408;DHT22;6268;48.188;17.134;2022-07-24T12:14:05;34.40;38.70
12408;DHT22;6268;48.188;17.134;2022-07-24T12:16:35;34.30;38.90
12408;DHT22;6268;48.188;17.134;2022-07-24T12:19:14;34.40;38.70
12408;DHT22;6268;48.188;17.134;2022-07-24T12:21:45;34.70;38.60
12408;DHT22;6268;48.188;17.134;2022-07-24T12:24:16;34.90;38.50
12408;DHT22;6268;48.188;17.134;2022-07-24T12:26:50;35.10;38.10
12408;DHT22;6268;48.188;17.134;2022-07-24T12:29:20;35.20;37.90
12408;DHT22;6268;48.188;17.134;2022-07-24T12:31:52;35.20;37.50
12408;DHT22;6268;48.188;17.134;2022-07-24T12:34:41;35.10;37.70
12408;DHT22;6268;48.188;17.134;2022-07-24T12:37:37;34.90;37.20
12408;DHT22;6268;48.188;17.134;2022-07-24T12:40:07;34.80;37.20
12408;DHT22;6268;48.188;17.134;2022-07-24T12:42:36;34.90;37.30
12408;DHT22;6268;48.188;17.134;2022-07-24T12:45:07;35.10;37.10
12408;DHT22;6268;48.188;17.134;2022-07-24T12:48:06;35.20;36.50
12408;DHT22;6268;48.188;17.134;2022-07-24T12:50:38;35.30;36.10
12408;DHT22;6268;48.188;17.134;2022-07-24T12:53:23;35.30;35.30
12408;DHT22;6268;48.188;17.134;2022-07-24T12:56:03;35.30;35.30
12408;DHT22;6268;48.188;17.134;2022-07-24T12:59:03;35.30;35.20
12408;DHT22;6268;48.188;17.134;2022-07-24T13:01:48;35.20;35.70
12408;DHT22;6268;48.188;17.134;2022-07-24T13:04:21;35.20;36.00
12408;DHT22;6268;48.188;17.134;2022-07-24T13:06:52;35.10;36.50
12408;DHT22;6268;48.188;17.134;2022-07-24T13:09:23;35.20;36.70
12408;DHT22;6268;48.188;17.134;2022-07-24T13:11:53;35.20;36.80
12408;DHT22;6268;48.188;17.134;2022-07-24T13:14:24;35.10;37.00
12408;DHT22;6268;48.188;17.134;2022-07-24T13:16:54;35.00;37.30
12408;DHT22;6268;48.188;17.134;2022-07-24T13:19:24;34.80;37.30
12408;DHT22;6268;48.188;17.134;2022-07-24T13:21:53;34.60;37.60
12408;DHT22;6268;48.188;17.134;2022-07-24T13:24:22;34.40;37.30
12408;DHT22;6268;48.188;17.134;2022-07-24T13:26:51;34.40;37.50
12408;DHT22;6268;48.188;17.134;2022-07-24T13:29:27;34.40;38.20
12408;DHT22;6268;48.188;17.134;2022-07-24T13:31:55;34.30;38.50
12408;DHT22;6268;48.188;17.134;2022-07-24T13:34:26;34.30;38.70
12408;DHT22;6268;48.188;17.134;2022-07-24T13:36:57;34.30;39.40
12408;DHT22;6268;48.188;17.134;2022-07-24T13:39:26;34.20;38.50
12408;DHT22;6268;48.188;17.134;2022-07-24T13:41:55;34.20;38.60
12408;DHT22;6268;48.188;17.134;2022-07-24T13:44:23;34.20;38.80
12408;DHT22;6268;48.188;17.134;2022-07-24T13:46:52;34.00;38.80
12408;DHT22;6268;48.188;17.134;2022-07-24T13:49:22;33.80;38.80
12408;DHT22;6268;48.188;17.134;2022-07-24T13:51:53;33.80;39.00
12408;DHT22;6268;48.188;17.134;2022-07-24T13:54:21;33.80;39.30
12408;DHT22;6268;48.188;17.134;2022-07-24T13:56:51;34.00;39.30
12408;DHT22;6268;48.188;17.134;2022-07-24T13:59:20;34.00;39.10
12408;DHT22;6268;48.188;17.134;2022-07-24T14:01:49;34.10;39.10
12408;DHT22;6268;48.188;17.134;2022-07-24T14:04:18;33.90;39.00
12408;DHT22;6268;48.188;17.134;2022-07-24T14:06:57;33.90;39.40
12408;DHT22;6268;48.188;17.134;2022-07-24T14:09:26;33.90;39.40
12408;DHT22;6268;48.188;17.134;2022-07-24T14:11:55;33.90;39.40
12408;DHT22;6268;48.188;17.134;2022-07-24T14:14:27;33.90;39.60
12408;DHT22;6268;48.188;17.134;2022-07-24T14:17:09;33.80;39.50
12408;DHT22;6268;48.188;17.134;2022-07-24T14:19:38;33.80;39.30
12408;DHT22;6268;48.188;17.134;2022-07-24T14:22:08;33.80;39.40
12408;DHT22;6268;48.188;17.134;2022-07-24T14:24:38;33.80;39.60
12408;DHT22;6268;48.188;17.134;2022-07-24T14:27:07;33.80;40.00
12408;DHT22;6268;48.188;17.134;2022-07-24T14:29:37;33.80;39.70
12408;DHT22;6268;48.188;17.134;2022-07-24T14:32:06;33.70;39.80
12408;DHT22;6268;48.188;17.134;2022-07-24T14:34:34;33.70;39.70
12408;DHT22;6268;48.188;17.134;2022-07-24T14:37:03;33.70;39.60
12408;DHT22;6268;48.188;17.134;2022-07-24T14:39:36;33.70;39.80
12408;DHT22;6268;48.188;17.134;2022-07-24T14:42:05;33.70;39.30
12408;DHT22;6268;48.188;17.134;2022-07-24T14:44:34;33.70;39.20
12408;DHT22;6268;48.188;17.134;2022-07-24T14:47:03;33.70;39.00
12408;DHT22;6268;48.188;17.134;2022-07-24T14:49:32;33.60;39.40
12408;DHT22;6268;48.188;17.134;2022-07-24T14:52:01;33.70;39.50
12408;DHT22;6268;48.188;17.134;2022-07-24T14:54:34;33.60;39.20
12408;DHT22;6268;48.188;17.134;2022-07-24T14:57:03;33.60;39.30
12408;DHT22;6268;48.188;17.134;2022-07-24T14:59:31;33.60;39.50
12408;DHT22;6268;48.188;17.134;2022-07-24T15:02:00;33.50;39.50
12408;DHT22;6268;48.188;17.134;2022-07-24T15:04:29;33.50;39.30
12408;DHT22;6268;48.188;17.134;2022-07-24T15:06:59;33.40;39.40
12408;DHT22;6268;48.188;17.134;2022-07-24T15:09:30;33.20;39.70
12408;DHT22;6268;48.188;17.134;2022-07-24T15:12:01;33.00;39.80
12408;DHT22;6268;48.188;17.134;2022-07-24T15:14:29;32.90;40.20
12408;DHT22;6268;48.188;17.134;2022-07-24T15:17:02;32.80;40.10
12408;DHT22;6268;48.188;17.134;2022-07-24T15:19:31;32.60;40.30
12408;DHT22;6268;48.188;17.134;2022-07-24T15:21:59;32.50;40.40
12408;DHT22;6268;48.188;17.134;2022-07-24T15:24:28;32.50;40.70
12408;DHT22;6268;48.188;17.134;2022-07-24T15:26:57;32.40;40.80
12408;DHT22;6268;48.188;17.134;2022-07-24T15:29:27;32.40;41.00
12408;DHT22;6268;48.188;17.134;2022-07-24T15:31:57;32.40;41.10
12408;DHT22;6268;48.188;17.134;2022-07-24T15:34:27;32.30;41.30
12408;DHT22;6268;48.188;17.134;2022-07-24T15:36:57;32.30;41.20
12408;DHT22;6268;48.188;17.134;2022-07-24T15:39:26;32.40;41.40
12408;DHT22;6268;48.188;17.134;2022-07-24T15:41:55;32.30;41.00
12408;DHT22;6268;48.188;17.134;2022-07-24T15:44:26;32.30;41.10
12408;DHT22;6268;48.188;17.134;2022-07-24T15:46:55;32.30;41.20
12408;DHT22;6268;48.188;17.134;2022-07-24T15:49:24;32.40;41.00
12408;DHT22;6268;48.188;17.134;2022-07-24T15:51:52;32.40;41.10
12408;DHT22;6268;48.188;17.134;2022-07-24T15:54:21;32.30;41.00
12408;DHT22;6268;48.188;17.134;2022-07-24T15:56:50;32.20;40.70